Tompkins, Canada
Current Conditions -  °F | °C
As of 5:00 AM on Monday 20 Oct 2014 (Local Time) from CYYN Reporting Station
Clear Clear  
Wind Chill:   Ceiling: Unl
Heat Index:   Visibility: 9mi
Dew Point:   Wind: 18mph
Humidity: 71%   Direction: 190°S
Pressure: 29.79"   Gusts: NA
Location:  50.07°N, 108.8°W
Report Text: CYYN 201100Z AUTO 19016KT 9SM CLR 09/04 A2979 RMK SLP091 DENSITY ALT 2700FT
Loading
Personal Weather Stations






























Interactive Weather Map
Tropical Storm Tracking
New forecast layout! Learn more

10-Day Weather Forecast

Advertisements
Track Severe Weather on mobile